sensor_id;sensor_type;location;lat;lon;timestamp;pressure;altitude;pressure_sealevel;temperature;humidity
28701;BME280;15877;52.344;16.790;2023-06-19T00:01:17;100574.91;;;19.50;62.05
28701;BME280;15877;52.344;16.790;2023-06-19T00:03:49;100571.33;;;19.47;62.41
28701;BME280;15877;52.344;16.790;2023-06-19T00:06:21;100575.65;;;19.47;62.68
28701;BME280;15877;52.344;16.790;2023-06-19T00:08:54;100576.58;;;19.44;62.57
28701;BME280;15877;52.344;16.790;2023-06-19T00:11:26;100577.04;;;19.39;62.77
28701;BME280;15877;52.344;16.790;2023-06-19T00:13:58;100579.80;;;19.37;62.72
28701;BME280;15877;52.344;16.790;2023-06-19T00:16:32;100576.67;;;19.35;62.49
28701;BME280;15877;52.344;16.790;2023-06-19T00:19:04;100575.02;;;19.32;62.43
28701;BME280;15877;52.344;16.790;2023-06-19T00:21:36;100574.57;;;19.28;62.78
28701;BME280;15877;52.344;16.790;2023-06-19T00:24:09;100571.52;;;19.27;61.75
28701;BME280;15877;52.344;16.790;2023-06-19T00:26:42;100572.09;;;19.26;61.47
28701;BME280;15877;52.344;16.790;2023-06-19T00:29:14;100575.10;;;19.23;61.03
28701;BME280;15877;52.344;16.790;2023-06-19T00:31:47;100570.21;;;19.20;61.25
28701;BME280;15877;52.344;16.790;2023-06-19T00:34:19;100566.63;;;19.19;61.99
28701;BME280;15877;52.344;16.790;2023-06-19T00:36:55;100565.59;;;19.18;62.40
28701;BME280;15877;52.344;16.790;2023-06-19T00:39:27;100548.29;;;19.09;62.34
28701;BME280;15877;52.344;16.790;2023-06-19T00:42:00;100562.10;;;19.12;62.22
28701;BME280;15877;52.344;16.790;2023-06-19T00:44:33;100558.42;;;19.10;62.58
28701;BME280;15877;52.344;16.790;2023-06-19T00:47:06;100559.55;;;19.10;62.98
28701;BME280;15877;52.344;16.790;2023-06-19T00:49:38;100554.34;;;19.07;62.83
28701;BME280;15877;52.344;16.790;2023-06-19T00:52:10;100554.90;;;19.08;62.51
28701;BME280;15877;52.344;16.790;2023-06-19T00:54:44;100553.55;;;19.06;62.79
28701;BME280;15877;52.344;16.790;2023-06-19T00:57:17;100549.25;;;19.03;62.81
28701;BME280;15877;52.344;16.790;2023-06-19T00:59:50;100549.24;;;19.03;63.11
28701;BME280;15877;52.344;16.790;2023-06-19T01:02:24;100542.10;;;19.01;62.81
28701;BME280;15877;52.344;16.790;2023-06-19T01:04:57;100541.08;;;19.00;62.95
28701;BME280;15877;52.344;16.790;2023-06-19T01:07:33;100539.80;;;18.98;63.03
28701;BME280;15877;52.344;16.790;2023-06-19T01:10:15;100539.02;;;18.96;63.21
28701;BME280;15877;52.344;16.790;2023-06-19T01:12:55;100535.23;;;18.97;62.99
28701;BME280;15877;52.344;16.790;2023-06-19T01:15:28;100533.81;;;18.95;62.90
28701;BME280;15877;52.344;16.790;2023-06-19T01:18:01;100537.13;;;18.93;63.10
28701;BME280;15877;52.344;16.790;2023-06-19T01:20:34;100534.16;;;18.92;63.46
28701;BME280;15877;52.344;16.790;2023-06-19T01:23:11;100532.80;;;18.91;62.90
28701;BME280;15877;52.344;16.790;2023-06-19T01:25:43;100532.41;;;18.89;63.14
28701;BME280;15877;52.344;16.790;2023-06-19T01:28:16;100531.39;;;18.88;63.00
28701;BME280;15877;52.344;16.790;2023-06-19T01:30:48;100530.90;;;18.87;62.35
28701;BME280;15877;52.344;16.790;2023-06-19T01:33:23;100533.90;;;18.85;62.10
28701;BME280;15877;52.344;16.790;2023-06-19T01:35:58;100537.48;;;18.82;62.72
28701;BME280;15877;52.344;16.790;2023-06-19T01:38:32;100536.55;;;18.79;62.58
28701;BME280;15877;52.344;16.790;2023-06-19T01:41:06;100537.84;;;18.78;63.16
28701;BME280;15877;52.344;16.790;2023-06-19T01:43:39;100538.66;;;18.76;62.82
28701;BME280;15877;52.344;16.790;2023-06-19T01:46:11;100515.41;;;18.60;63.02
28701;BME280;15877;52.344;16.790;2023-06-19T01:48:44;100541.58;;;18.74;63.18
28701;BME280;15877;52.344;16.790;2023-06-19T01:51:17;100543.52;;;18.72;62.90
28701;BME280;15877;52.344;16.790;2023-06-19T01:53:49;100541.14;;;18.70;62.88
28701;BME280;15877;52.344;16.790;2023-06-19T01:56:22;100540.20;;;18.66;63.12
28701;BME280;15877;52.344;16.790;2023-06-19T01:58:55;100543.50;;;18.66;62.81
28701;BME280;15877;52.344;16.790;2023-06-19T02:01:27;100537.58;;;18.63;63.23
28701;BME280;15877;52.344;16.790;2023-06-19T02:03:59;100535.36;;;18.60;63.16
28701;BME280;15877;52.344;16.790;2023-06-19T02:06:32;100525.46;;;18.50;63.11
28701;BME280;15877;52.344;16.790;2023-06-19T02:09:05;100535.86;;;18.58;62.99
28701;BME280;15877;52.344;16.790;2023-06-19T02:11:41;100533.39;;;18.55;63.27
28701;BME280;15877;52.344;16.790;2023-06-19T02:14:14;100532.29;;;18.52;63.48
28701;BME280;15877;52.344;16.790;2023-06-19T02:16:46;100533.20;;;18.49;63.63
28701;BME280;15877;52.344;16.790;2023-06-19T02:19:18;100538.29;;;18.46;64.18
28701;BME280;15877;52.344;16.790;2023-06-19T02:21:52;100543.36;;;18.45;64.01
28701;BME280;15877;52.344;16.790;2023-06-19T02:24:25;100548.59;;;18.45;64.13
28701;BME280;15877;52.344;16.790;2023-06-19T02:26:58;100549.55;;;18.46;64.11
28701;BME280;15877;52.344;16.790;2023-06-19T02:29:31;100546.66;;;18.45;63.68
28701;BME280;15877;52.344;16.790;2023-06-19T02:32:06;100546.20;;;18.43;63.56
28701;BME280;15877;52.344;16.790;2023-06-19T02:34:39;100547.48;;;18.42;63.61
28701;BME280;15877;52.344;16.790;2023-06-19T02:37:11;100546.45;;;18.41;63.57
28701;BME280;15877;52.344;16.790;2023-06-19T02:39:43;100544.52;;;18.39;63.32
28701;BME280;15877;52.344;16.790;2023-06-19T02:42:18;100547.26;;;18.37;63.49
28701;BME280;15877;52.344;16.790;2023-06-19T02:44:50;100550.33;;;18.36;62.85
28701;BME280;15877;52.344;16.790;2023-06-19T02:47:23;100552.73;;;18.34;62.68
28701;BME280;15877;52.344;16.790;2023-06-19T02:49:55;100553.33;;;18.32;62.72
28701;BME280;15877;52.344;16.790;2023-06-19T02:52:29;100549.30;;;18.31;62.88
28701;BME280;15877;52.344;16.790;2023-06-19T02:55:02;100554.48;;;18.29;63.17
28701;BME280;15877;52.344;16.790;2023-06-19T02:57:35;100551.66;;;18.27;63.21
28701;BME280;15877;52.344;16.790;2023-06-19T03:00:09;100548.40;;;18.25;62.40
28701;BME280;15877;52.344;16.790;2023-06-19T03:02:42;100543.89;;;18.25;62.67
28701;BME280;15877;52.344;16.790;2023-06-19T03:05:16;100541.10;;;18.23;62.85
28701;BME280;15877;52.344;16.790;2023-06-19T03:07:49;100543.98;;;18.24;63.35
28701;BME280;15877;52.344;16.790;2023-06-19T03:10:22;100544.62;;;18.24;63.55
28701;BME280;15877;52.344;16.790;2023-06-19T03:12:55;100546.39;;;18.25;63.77
28701;BME280;15877;52.344;16.790;2023-06-19T03:15:29;100539.63;;;18.25;64.12
28701;BME280;15877;52.344;16.790;2023-06-19T03:18:01;100529.64;;;18.19;63.41
28701;BME280;15877;52.344;16.790;2023-06-19T03:20:38;100537.46;;;18.25;62.98
28701;BME280;15877;52.344;16.790;2023-06-19T03:23:10;100532.24;;;18.25;63.14
28701;BME280;15877;52.344;16.790;2023-06-19T03:25:43;100533.27;;;18.25;63.67
28701;BME280;15877;52.344;16.790;2023-06-19T03:28:16;100531.44;;;18.24;63.96
28701;BME280;15877;52.344;16.790;2023-06-19T03:30:49;100532.31;;;18.25;64.05
28701;BME280;15877;52.344;16.790;2023-06-19T03:33:24;100535.66;;;18.27;64.48
28701;BME280;15877;52.344;16.790;2023-06-19T03:35:57;100533.02;;;18.28;64.57
28701;BME280;15877;52.344;16.790;2023-06-19T03:38:50;100530.02;;;18.30;64.57
28701;BME280;15877;52.344;16.790;2023-06-19T03:41:25;100524.64;;;18.32;64.50
28701;BME280;15877;52.344;16.790;2023-06-19T03:43:58;100521.65;;;18.33;64.35
28701;BME280;15877;52.344;16.790;2023-06-19T03:46:31;100521.23;;;18.34;64.56
28701;BME280;15877;52.344;16.790;2023-06-19T03:49:04;100520.27;;;18.34;64.88
28701;BME280;15877;52.344;16.790;2023-06-19T03:51:37;100523.95;;;18.35;65.08
28701;BME280;15877;52.344;16.790;2023-06-19T03:54:10;100524.67;;;18.36;65.44
28701;BME280;15877;52.344;16.790;2023-06-19T03:56:42;100526.35;;;18.38;65.61
28701;BME280;15877;52.344;16.790;2023-06-19T03:59:15;100527.16;;;18.41;65.68
28701;BME280;15877;52.344;16.790;2023-06-19T04:01:47;100522.27;;;18.42;65.58
28701;BME280;15877;52.344;16.790;2023-06-19T04:04:20;100528.90;;;18.43;65.78
28701;BME280;15877;52.344;16.790;2023-06-19T04:06:52;100532.02;;;18.45;65.97
28701;BME280;15877;52.344;16.790;2023-06-19T04:09:25;100531.77;;;18.47;66.15
28701;BME280;15877;52.344;16.790;2023-06-19T04:11:57;100532.38;;;18.50;66.66
28701;BME280;15877;52.344;16.790;2023-06-19T04:14:29;100534.76;;;18.55;66.76
28701;BME280;15877;52.344;16.790;2023-06-19T04:17:02;100538.20;;;18.57;67.34
28701;BME280;15877;52.344;16.790;2023-06-19T04:19:34;100537.20;;;18.59;67.84
28701;BME280;15877;52.344;16.790;2023-06-19T04:22:07;100535.33;;;18.63;68.00
28701;BME280;15877;52.344;16.790;2023-06-19T04:24:39;100537.47;;;18.67;67.85
28701;BME280;15877;52.344;16.790;2023-06-19T04:27:12;100539.28;;;18.70;68.03
28701;BME280;15877;52.344;16.790;2023-06-19T04:29:45;100542.79;;;18.73;68.60
28701;BME280;15877;52.344;16.790;2023-06-19T04:32:18;100545.00;;;18.77;68.64
28701;BME280;15877;52.344;16.790;2023-06-19T04:34:51;100550.43;;;18.82;69.41
28701;BME280;15877;52.344;16.790;2023-06-19T04:37:24;100548.46;;;18.86;69.66
28701;BME280;15877;52.344;16.790;2023-06-19T04:39:56;100538.67;;;18.84;69.55
28701;BME280;15877;52.344;16.790;2023-06-19T04:42:28;100549.40;;;18.96;69.74
28701;BME280;15877;52.344;16.790;2023-06-19T04:45:01;100553.77;;;19.00;69.75
28701;BME280;15877;52.344;16.790;2023-06-19T04:47:33;100561.38;;;19.05;69.86
28701;BME280;15877;52.344;16.790;2023-06-19T04:50:22;100561.73;;;19.09;70.29
28701;BME280;15877;52.344;16.790;2023-06-19T04:52:54;100566.43;;;19.13;70.38
28701;BME280;15877;52.344;16.790;2023-06-19T04:55:27;100562.53;;;19.17;70.69
28701;BME280;15877;52.344;16.790;2023-06-19T04:57:59;100561.34;;;19.23;70.69
28701;BME280;15877;52.344;16.790;2023-06-19T05:00:32;100560.48;;;19.28;71.13
28701;BME280;15877;52.344;16.790;2023-06-19T05:03:04;100563.08;;;19.34;71.25
28701;BME280;15877;52.344;16.790;2023-06-19T05:05:37;100563.42;;;19.40;71.38
28701;BME280;15877;52.344;16.790;2023-06-19T05:08:10;100566.66;;;19.46;71.79
28701;BME280;15877;52.344;16.790;2023-06-19T05:10:42;100567.98;;;19.51;71.71
28701;BME280;15877;52.344;16.790;2023-06-19T05:13:16;100563.80;;;19.57;71.64
28701;BME280;15877;52.344;16.790;2023-06-19T05:15:49;100564.98;;;19.64;71.66
28701;BME280;15877;52.344;16.790;2023-06-19T05:18:23;100556.85;;;19.64;71.34
28701;BME280;15877;52.344;16.790;2023-06-19T05:20:56;100568.05;;;19.76;71.45
28701;BME280;15877;52.344;16.790;2023-06-19T05:23:28;100565.78;;;19.83;71.31
28701;BME280;15877;52.344;16.790;2023-06-19T05:26:00;100567.20;;;19.91;71.57
28701;BME280;15877;52.344;16.790;2023-06-19T05:28:33;100566.77;;;19.99;71.74
28701;BME280;15877;52.344;16.790;2023-06-19T05:31:06;100572.61;;;20.07;71.72
28701;BME280;15877;52.344;16.790;2023-06-19T05:33:39;100569.73;;;20.18;71.84
28701;BME280;15877;52.344;16.790;2023-06-19T05:36:12;100565.23;;;20.17;71.79
28701;BME280;15877;52.344;16.790;2023-06-19T05:38:44;100581.15;;;20.31;71.78
28701;BME280;15877;52.344;16.790;2023-06-19T05:41:17;100583.20;;;20.38;72.16
28701;BME280;15877;52.344;16.790;2023-06-19T05:43:49;100585.41;;;20.46;71.71
28701;BME280;15877;52.344;16.790;2023-06-19T05:46:23;100591.75;;;20.53;71.49
28701;BME280;15877;52.344;16.790;2023-06-19T05:48:56;100598.80;;;20.61;71.27
28701;BME280;15877;52.344;16.790;2023-06-19T05:51:28;100601.83;;;20.69;71.29
28701;BME280;15877;52.344;16.790;2023-06-19T05:54:00;100601.20;;;20.77;70.51
28701;BME280;15877;52.344;16.790;2023-06-19T05:56:35;100593.97;;;20.85;70.30
28701;BME280;15877;52.344;16.790;2023-06-19T05:59:07;100596.86;;;20.91;70.16
28701;BME280;15877;52.344;16.790;2023-06-19T06:01:40;100597.79;;;20.98;70.11
28701;BME280;15877;52.344;16.790;2023-06-19T06:04:12;100596.77;;;21.07;69.32
28701;BME280;15877;52.344;16.790;2023-06-19T06:06:45;100599.48;;;21.17;69.54
28701;BME280;15877;52.344;16.790;2023-06-19T06:09:17;100601.71;;;21.23;69.08
28701;BME280;15877;52.344;16.790;2023-06-19T06:11:52;100604.80;;;21.30;67.98
28701;BME280;15877;52.344;16.790;2023-06-19T06:14:25;100608.38;;;21.37;67.43
28701;BME280;15877;52.344;16.790;2023-06-19T06:16:57;100609.13;;;21.44;66.55
28701;BME280;15877;52.344;16.790;2023-06-19T06:19:30;100610.58;;;21.52;66.40
28701;BME280;15877;52.344;16.790;2023-06-19T06:22:04;100608.32;;;21.60;66.78
28701;BME280;15877;52.344;16.790;2023-06-19T06:24:36;100608.17;;;21.67;66.94
28701;BME280;15877;52.344;16.790;2023-06-19T06:27:09;100614.64;;;21.75;66.21
28701;BME280;15877;52.344;16.790;2023-06-19T06:29:42;100611.91;;;21.80;65.66
28701;BME280;15877;52.344;16.790;2023-06-19T06:32:15;100614.86;;;21.86;64.73
28701;BME280;15877;52.344;16.790;2023-06-19T06:34:47;100619.38;;;21.93;64.22
28701;BME280;15877;52.344;16.790;2023-06-19T06:37:20;100621.05;;;22.02;64.19
28701;BME280;15877;52.344;16.790;2023-06-19T06:39:53;100624.34;;;22.11;64.04
28701;BME280;15877;52.344;16.790;2023-06-19T06:42:26;100624.36;;;22.13;63.39
28701;BME280;15877;52.344;16.790;2023-06-19T06:44:58;100626.16;;;22.23;63.56
28701;BME280;15877;52.344;16.790;2023-06-19T06:47:30;100625.18;;;22.30;62.76
28701;BME280;15877;52.344;16.790;2023-06-19T06:50:05;100623.09;;;22.38;62.05
28701;BME280;15877;52.344;16.790;2023-06-19T06:52:37;100621.23;;;22.47;61.68
28701;BME280;15877;52.344;16.790;2023-06-19T06:55:10;100617.31;;;22.57;61.05
28701;BME280;15877;52.344;16.790;2023-06-19T06:57:42;100615.36;;;22.63;60.05
28701;BME280;15877;52.344;16.790;2023-06-19T07:00:16;100612.75;;;22.71;59.57
28701;BME280;15877;52.344;16.790;2023-06-19T07:02:49;100618.55;;;22.78;59.05
28701;BME280;15877;52.344;16.790;2023-06-19T07:05:22;100620.00;;;22.85;58.87
28701;BME280;15877;52.344;16.790;2023-06-19T07:07:54;100623.52;;;22.93;57.78
28701;BME280;15877;52.344;16.790;2023-06-19T07:10:27;100622.41;;;22.98;56.26
28701;BME280;15877;52.344;16.790;2023-06-19T07:12:59;100626.91;;;23.06;56.40
28701;BME280;15877;52.344;16.790;2023-06-19T07:15:31;100622.73;;;23.14;56.42
28701;BME280;15877;52.344;16.790;2023-06-19T07:18:03;100620.90;;;23.19;54.77
28701;BME280;15877;52.344;16.790;2023-06-19T07:20:36;100619.20;;;23.19;53.47
28701;BME280;15877;52.344;16.790;2023-06-19T07:23:08;100625.52;;;23.32;52.71
28701;BME280;15877;52.344;16.790;2023-06-19T07:25:41;100623.45;;;23.40;52.44
28701;BME280;15877;52.344;16.790;2023-06-19T07:28:14;100622.41;;;23.45;52.46
28701;BME280;15877;52.344;16.790;2023-06-19T07:30:47;100621.57;;;23.52;51.60
28701;BME280;15877;52.344;16.790;2023-06-19T07:33:19;100622.59;;;23.59;51.67
28701;BME280;15877;52.344;16.790;2023-06-19T07:35:51;100620.63;;;23.65;51.64
28701;BME280;15877;52.344;16.790;2023-06-19T07:38:23;100614.04;;;23.66;50.96
28701;BME280;15877;52.344;16.790;2023-06-19T07:40:56;100624.17;;;23.80;51.51
28701;BME280;15877;52.344;16.790;2023-06-19T07:43:28;100629.10;;;23.91;51.97
28701;BME280;15877;52.344;16.790;2023-06-19T07:46:00;100631.20;;;24.01;50.48
28701;BME280;15877;52.344;16.790;2023-06-19T07:48:32;100631.23;;;24.07;50.01
28701;BME280;15877;52.344;16.790;2023-06-19T07:51:05;100630.83;;;24.16;49.19
28701;BME280;15877;52.344;16.790;2023-06-19T07:53:37;100638.16;;;24.29;49.07
28701;BME280;15877;52.344;16.790;2023-06-19T07:56:10;100637.33;;;24.37;48.82
28701;BME280;15877;52.344;16.790;2023-06-19T07:58:42;100640.23;;;24.47;48.27
28701;BME280;15877;52.344;16.790;2023-06-19T08:01:14;100635.83;;;24.61;47.72
28701;BME280;15877;52.344;16.790;2023-06-19T08:03:48;100637.58;;;24.70;47.89
28701;BME280;15877;52.344;16.790;2023-06-19T08:06:20;100635.24;;;24.79;46.45
28701;BME280;15877;52.344;16.790;2023-06-19T08:08:53;100631.02;;;24.89;47.05
28701;BME280;15877;52.344;16.790;2023-06-19T08:11:25;100628.81;;;24.99;46.78
28701;BME280;15877;52.344;16.790;2023-06-19T08:13:57;100627.23;;;25.07;46.68
28701;BME280;15877;52.344;16.790;2023-06-19T08:16:29;100627.00;;;25.09;45.75
28701;BME280;15877;52.344;16.790;2023-06-19T08:19:02;100627.59;;;25.20;45.36
28701;BME280;15877;52.344;16.790;2023-06-19T08:21:34;100626.85;;;25.29;44.89
28701;BME280;15877;52.344;16.790;2023-06-19T08:24:07;100623.95;;;25.36;44.95
28701;BME280;15877;52.344;16.790;2023-06-19T08:26:39;100620.64;;;25.45;45.62
28701;BME280;15877;52.344;16.790;2023-06-19T08:29:11;100624.18;;;25.53;45.13
28701;BME280;15877;52.344;16.790;2023-06-19T08:31:43;100620.05;;;25.57;45.01
28701;BME280;15877;52.344;16.790;2023-06-19T08:34:16;100618.06;;;25.64;44.64
28701;BME280;15877;52.344;16.790;2023-06-19T08:36:49;100616.96;;;25.74;43.98
28701;BME280;15877;52.344;16.790;2023-06-19T08:39:21;100611.88;;;25.81;43.00
28701;BME280;15877;52.344;16.790;2023-06-19T08:41:55;100615.44;;;25.93;44.04
28701;BME280;15877;52.344;16.790;2023-06-19T08:44:28;100614.36;;;26.00;43.35
28701;BME280;15877;52.344;16.790;2023-06-19T08:47:00;100602.23;;;26.00;43.05
28701;BME280;15877;52.344;16.790;2023-06-19T08:49:35;100611.79;;;26.10;42.69
28701;BME280;15877;52.344;16.790;2023-06-19T08:52:09;100599.63;;;26.17;43.15
28701;BME280;15877;52.344;16.790;2023-06-19T08:54:41;100598.63;;;26.22;43.65
28701;BME280;15877;52.344;16.790;2023-06-19T08:57:15;100598.31;;;26.30;42.56
28701;BME280;15877;52.344;16.790;2023-06-19T08:59:50;100600.08;;;26.38;42.97
28701;BME280;15877;52.344;16.790;2023-06-19T09:02:23;100603.50;;;26.50;43.59
28701;BME280;15877;52.344;16.790;2023-06-19T09:04:55;100599.64;;;26.58;42.96
28701;BME280;15877;52.344;16.790;2023-06-19T09:07:28;100588.30;;;26.58;42.23
28701;BME280;15877;52.344;16.790;2023-06-19T09:10:00;100593.73;;;26.69;42.12
28701;BME280;15877;52.344;16.790;2023-06-19T09:12:44;100594.98;;;26.80;42.02
28701;BME280;15877;52.344;16.790;2023-06-19T09:15:17;100597.29;;;26.87;41.55
28701;BME280;15877;52.344;16.790;2023-06-19T09:17:49;100597.14;;;26.94;40.65
28701;BME280;15877;52.344;16.790;2023-06-19T09:20:31;100601.15;;;27.05;40.42
28701;BME280;15877;52.344;16.790;2023-06-19T09:23:03;100600.85;;;27.08;40.10
28701;BME280;15877;52.344;16.790;2023-06-19T09:25:46;100602.42;;;27.19;40.26
28701;BME280;15877;52.344;16.790;2023-06-19T09:28:20;100601.94;;;27.19;38.28
28701;BME280;15877;52.344;16.790;2023-06-19T09:30:59;100598.10;;;27.10;37.58
28701;BME280;15877;52.344;16.790;2023-06-19T09:33:33;100600.80;;;27.15;37.09
28701;BME280;15877;52.344;16.790;2023-06-19T09:36:06;100597.98;;;27.22;36.63
28701;BME280;15877;52.344;16.790;2023-06-19T09:38:39;100596.73;;;27.21;38.18
28701;BME280;15877;52.344;16.790;2023-06-19T09:41:16;100593.48;;;27.28;38.54
28701;BME280;15877;52.344;16.790;2023-06-19T09:43:51;100596.75;;;27.39;39.09
28701;BME280;15877;52.344;16.790;2023-06-19T09:46:31;100593.88;;;27.38;37.69
28701;BME280;15877;52.344;16.790;2023-06-19T09:49:05;100591.34;;;27.40;39.09
28701;BME280;15877;52.344;16.790;2023-06-19T09:51:41;100591.63;;;27.46;39.29
28701;BME280;15877;52.344;16.790;2023-06-19T09:54:16;100589.97;;;27.50;39.33
28701;BME280;15877;52.344;16.790;2023-06-19T09:56:49;100586.48;;;27.57;38.90
28701;BME280;15877;52.344;16.790;2023-06-19T09:59:23;100583.74;;;27.63;38.14
28701;BME280;15877;52.344;16.790;2023-06-19T10:01:55;100584.03;;;27.68;38.47
28701;BME280;15877;52.344;16.790;2023-06-19T10:04:29;100582.88;;;27.73;38.74
28701;BME280;15877;52.344;16.790;2023-06-19T10:07:01;100578.33;;;27.64;38.84
28701;BME280;15877;52.344;16.790;2023-06-19T10:09:34;100580.08;;;27.56;38.69
28701;BME280;15877;52.344;16.790;2023-06-19T10:14:48;100586.27;;;27.72;38.91
28701;BME280;15877;52.344;16.790;2023-06-19T10:17:21;100583.59;;;27.70;39.02
28701;BME280;15877;52.344;16.790;2023-06-19T10:19:53;100583.92;;;27.77;38.78
28701;BME280;15877;52.344;16.790;2023-06-19T10:22:31;100586.15;;;27.94;38.55
28701;BME280;15877;52.344;16.790;2023-06-19T10:25:04;100582.70;;;28.14;38.58
28701;BME280;15877;52.344;16.790;2023-06-19T10:27:38;100580.63;;;28.21;38.15
28701;BME280;15877;52.344;16.790;2023-06-19T10:30:19;100573.52;;;28.26;36.65
28701;BME280;15877;52.344;16.790;2023-06-19T10:32:52;100581.14;;;28.32;37.38
28701;BME280;15877;52.344;16.790;2023-06-19T10:35:24;100572.55;;;28.30;37.63
28701;BME280;15877;52.344;16.790;2023-06-19T10:37:57;100579.17;;;28.37;37.14
28701;BME280;15877;52.344;16.790;2023-06-19T10:40:29;100581.46;;;28.49;37.15
28701;BME280;15877;52.344;16.790;2023-06-19T10:43:02;100582.91;;;28.61;36.71
28701;BME280;15877;52.344;16.790;2023-06-19T10:45:34;100583.72;;;28.71;37.04
28701;BME280;15877;52.344;16.790;2023-06-19T10:48:08;100579.44;;;28.82;37.37
28701;BME280;15877;52.344;16.790;2023-06-19T10:50:43;100576.30;;;28.95;37.51
28701;BME280;15877;52.344;16.790;2023-06-19T10:53:26;100580.63;;;29.05;37.06
28701;BME280;15877;52.344;16.790;2023-06-19T10:56:00;100579.27;;;29.06;36.55
28701;BME280;15877;52.344;16.790;2023-06-19T10:58:32;100577.36;;;29.16;36.76
28701;BME280;15877;52.344;16.790;2023-06-19T11:01:04;100573.05;;;29.17;36.65
28701;BME280;15877;52.344;16.790;2023-06-19T11:03:37;100572.39;;;29.30;35.98
28701;BME280;15877;52.344;16.790;2023-06-19T11:06:09;100571.02;;;29.37;36.18
28701;BME280;15877;52.344;16.790;2023-06-19T11:08:50;100574.23;;;29.44;36.28
28701;BME280;15877;52.344;16.790;2023-06-19T11:11:22;100573.63;;;29.53;36.30
28701;BME280;15877;52.344;16.790;2023-06-19T11:13:54;100569.14;;;29.59;36.22
28701;BME280;15877;52.344;16.790;2023-06-19T11:16:27;100572.08;;;29.66;35.08
28701;BME280;15877;52.344;16.790;2023-06-19T11:19:00;100568.92;;;29.71;35.13
28701;BME280;15877;52.344;16.790;2023-06-19T11:21:33;100560.98;;;29.79;35.16
28701;BME280;15877;52.344;16.790;2023-06-19T11:24:13;100568.03;;;29.84;35.31
28701;BME280;15877;52.344;16.790;2023-06-19T11:26:47;100561.63;;;29.91;34.80
28701;BME280;15877;52.344;16.790;2023-06-19T11:29:24;100554.08;;;30.03;35.26
28701;BME280;15877;52.344;16.790;2023-06-19T11:32:07;100551.18;;;30.02;34.30
28701;BME280;15877;52.344;16.790;2023-06-19T11:34:42;100550.67;;;30.11;34.04
28701;BME280;15877;52.344;16.790;2023-06-19T11:37:16;100547.38;;;30.10;34.57
28701;BME280;15877;52.344;16.790;2023-06-19T11:39:51;100545.06;;;30.15;33.94
28701;BME280;15877;52.344;16.790;2023-06-19T11:42:24;100545.54;;;30.39;34.65
28701;BME280;15877;52.344;16.790;2023-06-19T11:44:59;100537.63;;;30.50;34.35
28701;BME280;15877;52.344;16.790;2023-06-19T11:47:33;100538.45;;;30.55;34.20
28701;BME280;15877;52.344;16.790;2023-06-19T11:50:09;100535.22;;;30.64;33.57
28701;BME280;15877;52.344;16.790;2023-06-19T11:52:41;100531.34;;;30.62;34.04
28701;BME280;15877;52.344;16.790;2023-06-19T11:55:16;100531.30;;;30.56;33.85
28701;BME280;15877;52.344;16.790;2023-06-19T11:57:48;100520.52;;;30.47;33.77
28701;BME280;15877;52.344;16.790;2023-06-19T12:00:21;100528.95;;;30.38;34.14
28701;BME280;15877;52.344;16.790;2023-06-19T12:02:54;100524.60;;;30.47;34.28
28701;BME280;15877;52.344;16.790;2023-06-19T12:05:28;100527.52;;;30.68;33.91
28701;BME280;15877;52.344;16.790;2023-06-19T12:08:00;100527.17;;;30.79;33.47
28701;BME280;15877;52.344;16.790;2023-06-19T12:10:34;100523.45;;;30.92;32.89
28701;BME280;15877;52.344;16.790;2023-06-19T12:13:07;100522.04;;;31.01;32.89
28701;BME280;15877;52.344;16.790;2023-06-19T12:15:40;100527.12;;;31.02;32.14
28701;BME280;15877;52.344;16.790;2023-06-19T12:18:12;100525.61;;;31.15;32.76
28701;BME280;15877;52.344;16.790;2023-06-19T12:20:45;100523.72;;;31.10;33.07
28701;BME280;15877;52.344;16.790;2023-06-19T12:23:18;100521.08;;;30.96;32.91
28701;BME280;15877;52.344;16.790;2023-06-19T12:25:51;100521.41;;;30.84;33.93
28701;BME280;15877;52.344;16.790;2023-06-19T12:28:23;100522.45;;;30.75;34.03
28701;BME280;15877;52.344;16.790;2023-06-19T12:30:56;100523.41;;;30.62;33.79
28701;BME280;15877;52.344;16.790;2023-06-19T12:33:29;100519.41;;;30.77;32.99
28701;BME280;15877;52.344;16.790;2023-06-19T12:36:04;100516.53;;;30.79;31.83
28701;BME280;15877;52.344;16.790;2023-06-19T12:38:37;100509.95;;;30.64;30.71
28701;BME280;15877;52.344;16.790;2023-06-19T12:41:09;100512.73;;;30.59;30.19
28701;BME280;15877;52.344;16.790;2023-06-19T12:43:41;100508.91;;;30.46;29.89
28701;BME280;15877;52.344;16.790;2023-06-19T12:46:14;100510.23;;;30.38;30.63
28701;BME280;15877;52.344;16.790;2023-06-19T12:48:46;100502.27;;;30.35;31.16
28701;BME280;15877;52.344;16.790;2023-06-19T12:51:21;100506.11;;;30.28;31.80
28701;BME280;15877;52.344;16.790;2023-06-19T12:53:53;100508.02;;;30.12;31.14
28701;BME280;15877;52.344;16.790;2023-06-19T12:56:26;100506.98;;;30.13;31.35
28701;BME280;15877;52.344;16.790;2023-06-19T12:58:59;100502.32;;;30.07;32.02
28701;BME280;15877;52.344;16.790;2023-06-19T13:01:32;100503.17;;;30.05;31.80
28701;BME280;15877;52.344;16.790;2023-06-19T13:04:04;100486.35;;;29.93;33.08
28701;BME280;15877;52.344;16.790;2023-06-19T13:06:38;100500.55;;;30.07;32.72
28701;BME280;15877;52.344;16.790;2023-06-19T13:09:10;100499.98;;;30.11;31.90
28701;BME280;15877;52.344;16.790;2023-06-19T13:11:43;100494.16;;;30.11;32.24
28701;BME280;15877;52.344;16.790;2023-06-19T13:14:15;100489.36;;;30.18;33.01